Time;durP1;ratioP1;P1;durP2;ratioP2;P2;SDS_P1;SDS_P2;PMS_P1;PMS_P2;Temp;Humidity;BMP_temperature;BMP_pressure;BME280_temperature;BME280_humidity;BME280_pressure;Samples;Min_cycle;Max_cycle;Signal;HPM_P1;HPM_P2
2023/04/26 00:02:22;;;;;;;5.20;2.27;;;3.60;99.90;;;;;;5095643;28;20036;-52
2023/04/26 00:04:54;;;;;;;5.13;1.70;;;3.50;99.90;;;;;;5096961;28;20547;-55
2023/04/26 00:07:23;;;;;;;5.22;1.85;;;3.50;99.90;;;;;;5109601;28;20040;-56
2023/04/26 00:09:49;;;;;;;4.22;1.77;;;3.50;99.90;;;;;;5089416;28;20067;-57
2023/04/26 00:12:15;;;;;;;8.25;2.35;;;3.50;99.90;;;;;;5090721;28;20078;-55
2023/04/26 00:14:41;;;;;;;7.80;2.55;;;3.50;99.90;;;;;;5089935;28;20079;-56
2023/04/26 00:17:06;;;;;;;10.95;2.10;;;3.40;99.90;;;;;;5106917;28;20108;-56
2023/04/26 00:19:32;;;;;;;2.63;1.50;;;3.40;99.90;;;;;;5107853;28;20036;-55
2023/04/26 00:21:58;;;;;;;5.73;1.93;;;3.40;99.90;;;;;;5100177;28;20342;-55
2023/04/26 00:24:23;;;;;;;8.03;2.43;;;3.40;99.90;;;;;;5107687;28;20397;-55
2023/04/26 00:26:52;;;;;;;6.97;2.90;;;3.40;99.90;;;;;;5104536;28;20035;-54
2023/04/26 00:29:17;;;;;;;5.65;2.42;;;3.30;99.90;;;;;;5108765;28;20092;-54
2023/04/26 00:31:43;;;;;;;5.03;2.50;;;3.30;99.90;;;;;;5096556;28;20031;-53
2023/04/26 00:34:08;;;;;;;7.77;2.27;;;3.20;99.90;;;;;;5089886;28;20032;-55
2023/04/26 00:36:34;;;;;;;4.83;2.27;;;3.20;99.90;;;;;;5100816;28;20128;-53
2023/04/26 00:38:59;;;;;;;5.63;2.20;;;3.20;99.90;;;;;;5108857;28;20042;-53
2023/04/26 00:41:25;;;;;;;5.90;1.90;;;3.10;99.90;;;;;;5100131;28;20044;-54
2023/04/26 00:43:51;;;;;;;9.52;2.97;;;3.10;99.90;;;;;;5088350;28;20493;-53
2023/04/26 00:46:17;;;;;;;4.27;2.03;;;3.10;99.90;;;;;;5097391;28;20036;-55
2023/04/26 00:48:43;;;;;;;6.23;2.80;;;3.10;99.90;;;;;;5108698;28;20074;-55
2023/04/26 00:51:08;;;;;;;9.02;2.72;;;3.10;99.90;;;;;;5091585;28;20049;-57
2023/04/26 00:53:35;;;;;;;5.13;2.42;;;3.10;99.90;;;;;;5089690;28;20032;-54
2023/04/26 00:56:01;;;;;;;6.72;2.85;;;3.10;99.90;;;;;;5092681;28;20809;-54
2023/04/26 00:58:26;;;;;;;9.95;2.80;;;3.10;99.90;;;;;;5109319;28;20106;-52
2023/04/26 01:00:52;;;;;;;7.15;2.28;;;3.10;99.90;;;;;;5107678;28;20546;-52
2023/04/26 01:03:18;;;;;;;8.27;2.30;;;3.10;99.90;;;;;;5109107;28;20044;-55
2023/04/26 01:05:44;;;;;;;6.63;2.13;;;3.10;99.90;;;;;;5093491;28;20051;-55
2023/04/26 01:08:10;;;;;;;7.90;2.63;;;3.10;99.90;;;;;;5095383;28;20066;-54
2023/04/26 01:10:36;;;;;;;7.60;2.90;;;3.10;99.90;;;;;;5108907;28;20040;-53
2023/04/26 01:13:02;;;;;;;9.67;2.57;;;3.10;99.90;;;;;;5097645;28;20044;-56
2023/04/26 01:15:29;;;;;;;7.53;2.67;;;3.20;99.90;;;;;;5093425;28;20624;-54
2023/04/26 01:17:56;;;;;;;6.65;2.38;;;3.10;99.90;;;;;;5093058;28;20401;-56
2023/04/26 01:20:23;;;;;;;6.95;2.92;;;3.20;99.90;;;;;;5100029;28;20047;-55
2023/04/26 01:22:48;;;;;;;6.18;2.90;;;3.20;99.90;;;;;;5095409;28;20044;-53
2023/04/26 01:25:16;;;;;;;6.23;1.77;;;3.20;99.90;;;;;;5089161;28;20054;-55
2023/04/26 01:27:41;;;;;;;14.38;2.58;;;3.30;99.90;;;;;;5101515;28;20096;-55
2023/04/26 01:30:08;;;;;;;5.43;2.10;;;3.30;99.90;;;;;;5111071;28;20434;-56
2023/04/26 01:32:34;;;;;;;9.98;3.47;;;3.30;99.90;;;;;;5111324;27;20044;-54
2023/04/26 01:35:00;;;;;;;7.18;3.15;;;3.40;99.90;;;;;;5113456;28;20265;-56
2023/04/26 01:37:26;;;;;;;8.52;2.85;;;3.40;99.90;;;;;;5095174;27;20032;-56
2023/04/26 01:39:51;;;;;;;9.63;1.97;;;3.40;99.90;;;;;;5092014;28;20040;-54
2023/04/26 01:42:17;;;;;;;7.70;2.63;;;3.40;99.90;;;;;;5093990;28;20040;-55
2023/04/26 01:44:42;;;;;;;5.87;1.93;;;3.40;99.90;;;;;;5092912;28;20703;-54
2023/04/26 01:47:08;;;;;;;8.97;2.70;;;3.40;99.90;;;;;;5104981;28;20085;-56
2023/04/26 01:49:34;;;;;;;8.87;3.03;;;3.40;99.90;;;;;;5112078;27;20207;-54
2023/04/26 01:52:01;;;;;;;7.27;2.83;;;3.40;99.90;;;;;;5111467;28;20632;-55
2023/04/26 01:54:26;;;;;;;7.78;2.85;;;3.40;99.90;;;;;;5112683;28;20278;-56
2023/04/26 01:56:52;;;;;;;7.10;3.27;;;3.40;99.90;;;;;;5109097;28;20508;-54
2023/04/26 01:59:18;;;;;;;7.70;2.63;;;3.40;99.90;;;;;;5111540;28;20043;-53
2023/04/26 02:01:43;;;;;;;8.97;2.77;;;3.40;99.90;;;;;;5103868;28;20075;-56
2023/04/26 02:04:09;;;;;;;6.17;2.80;;;3.40;99.90;;;;;;5092370;28;20049;-55
2023/04/26 02:06:35;;;;;;;10.32;2.88;;;3.30;99.90;;;;;;5098678;28;20164;-55
2023/04/26 02:09:01;;;;;;;6.85;2.38;;;3.30;99.90;;;;;;5111558;28;20077;-55
2023/04/26 02:11:26;;;;;;;10.57;2.77;;;3.30;99.90;;;;;;5107900;28;20497;-56
2023/04/26 02:13:52;;;;;;;6.23;2.17;;;3.20;99.90;;;;;;5091866;28;20051;-54
2023/04/26 02:16:18;;;;;;;10.85;2.50;;;3.30;99.90;;;;;;5093033;28;20092;-55
2023/04/26 02:18:44;;;;;;;8.63;2.90;;;3.20;99.90;;;;;;5091444;28;20123;-55
2023/04/26 02:21:16;;;;;;;6.53;2.10;;;3.20;99.90;;;;;;5092594;28;20040;-55
2023/04/26 02:23:41;;;;;;;5.15;2.58;;;3.20;99.90;;;;;;5092397;28;20534;-54
2023/04/26 02:26:07;;;;;;;14.53;3.47;;;3.20;99.90;;;;;;5090880;28;20147;-55
2023/04/26 02:28:32;;;;;;;5.73;1.90;;;3.20;99.90;;;;;;5111638;28;20035;-55
2023/04/26 02:30:58;;;;;;;7.90;2.70;;;3.20;99.90;;;;;;5111044;28;20066;-53
2023/04/26 02:33:24;;;;;;;6.43;2.15;;;3.10;99.90;;;;;;5110420;28;20028;-56
2023/04/26 02:35:49;;;;;;;3.63;1.73;;;3.10;99.90;;;;;;5111203;28;20137;-54
2023/04/26 02:38:16;;;;;;;2.00;1.70;;;3.10;99.90;;;;;;5094942;28;20288;-55
2023/04/26 02:40:41;;;;;;;4.13;2.05;;;3.10;99.90;;;;;;5090586;28;20063;-54
2023/04/26 02:43:09;;;;;;;7.13;2.70;;;3.10;99.90;;;;;;5105390;28;20151;-55
2023/04/26 02:45:40;;;;;;;5.93;2.45;;;3.10;99.90;;;;;;5111433;28;20035;-53
2023/04/26 02:48:06;;;;;;;11.07;2.58;;;3.10;99.90;;;;;;5097533;28;20465;-54
2023/04/26 02:50:31;;;;;;;7.23;2.80;;;3.00;99.90;;;;;;5090723;28;20111;-55
2023/04/26 02:52:57;;;;;;;4.90;2.30;;;3.00;99.90;;;;;;5103657;28;20480;-56
2023/04/26 02:55:22;;;;;;;8.43;3.40;;;3.00;99.90;;;;;;5111953;28;20070;-56
2023/04/26 02:57:48;;;;;;;9.07;2.90;;;3.00;99.90;;;;;;5099728;28;20043;-55
2023/04/26 03:00:13;;;;;;;12.03;3.07;;;3.00;99.90;;;;;;5090716;28;20458;-55
2023/04/26 03:02:39;;;;;;;11.40;3.20;;;3.00;99.90;;;;;;5098559;28;20040;-54
2023/04/26 03:05:05;;;;;;;7.85;3.08;;;3.00;99.90;;;;;;5111335;28;20365;-52
2023/04/26 03:07:31;;;;;;;3.88;1.92;;;3.00;99.90;;;;;;5103866;28;20035;-55
2023/04/26 03:09:57;;;;;;;7.07;2.75;;;3.00;99.90;;;;;;5111216;28;20341;-56
2023/04/26 03:12:23;;;;;;;4.60;2.22;;;3.00;99.90;;;;;;5109642;28;20122;-53
2023/04/26 03:14:48;;;;;;;6.70;2.27;;;3.00;99.90;;;;;;5110883;28;20146;-52
2023/04/26 03:17:14;;;;;;;6.97;2.80;;;3.00;99.90;;;;;;5109765;28;20043;-55
2023/04/26 03:19:40;;;;;;;4.00;2.37;;;3.00;99.90;;;;;;5110008;28;20408;-56
2023/04/26 03:22:05;;;;;;;7.23;2.57;;;3.00;99.90;;;;;;5109398;28;20035;-53
2023/04/26 03:24:31;;;;;;;7.60;2.50;;;3.00;99.90;;;;;;5111056;28;20047;-56
2023/04/26 03:26:57;;;;;;;8.80;2.58;;;3.00;99.90;;;;;;5111100;28;20043;-56
2023/04/26 03:29:22;;;;;;;4.37;2.13;;;3.00;99.90;;;;;;5107498;28;20051;-54
2023/04/26 03:31:48;;;;;;;3.77;2.30;;;3.00;99.90;;;;;;5094415;27;20047;-55
2023/04/26 03:34:13;;;;;;;4.20;2.43;;;3.00;99.90;;;;;;5104279;28;20035;-55
2023/04/26 03:36:39;;;;;;;9.80;2.70;;;3.00;99.90;;;;;;5101396;28;20036;-56
2023/04/26 03:39:05;;;;;;;4.57;2.23;;;3.00;99.90;;;;;;5103035;28;20100;-55
2023/04/26 03:41:32;;;;;;;6.10;1.95;;;3.00;99.90;;;;;;5097915;28;20048;-54
2023/04/26 03:43:57;;;;;;;2.78;1.75;;;3.00;99.90;;;;;;5097985;28;20113;-53
2023/04/26 03:46:23;;;;;;;7.67;2.40;;;3.00;99.90;;;;;;5095562;28;20073;-54
2023/04/26 03:48:48;;;;;;;7.23;3.10;;;2.90;99.90;;;;;;5098762;28;20028;-56
2023/04/26 03:51:14;;;;;;;6.30;2.67;;;2.90;99.90;;;;;;5089831;28;20044;-55
2023/04/26 03:53:40;;;;;;;8.37;2.50;;;2.90;99.90;;;;;;5091581;28;20028;-55
2023/04/26 03:56:06;;;;;;;5.43;2.33;;;2.90;99.90;;;;;;5090750;28;20675;-53
2023/04/26 03:58:32;;;;;;;7.28;3.08;;;2.90;99.90;;;;;;5096543;28;20024;-55
2023/04/26 04:00:57;;;;;;;4.82;2.38;;;2.90;99.90;;;;;;5110164;28;20422;-55
2023/04/26 04:03:23;;;;;;;4.78;2.25;;;2.90;99.90;;;;;;5105281;28;20111;-53
2023/04/26 04:05:49;;;;;;;7.07;2.73;;;2.90;99.90;;;;;;5107613;28;20067;-55
2023/04/26 04:08:14;;;;;;;6.30;2.53;;;2.90;99.90;;;;;;5104566;28;20282;-55
2023/04/26 04:10:41;;;;;;;7.33;3.13;;;2.90;99.90;;;;;;5089842;28;20063;-57
2023/04/26 04:13:07;;;;;;;8.10;3.33;;;2.80;99.90;;;;;;5091155;28;20051;-55
2023/04/26 04:15:33;;;;;;;6.90;2.83;;;2.80;99.90;;;;;;5096400;28;20040;-55
2023/04/26 04:17:58;;;;;;;6.97;2.60;;;2.70;99.90;;;;;;5087831;28;20051;-56
2023/04/26 04:20:24;;;;;;;5.97;3.17;;;2.70;99.90;;;;;;5109028;28;20074;-56
2023/04/26 04:22:50;;;;;;;9.00;3.60;;;2.70;99.90;;;;;;5110172;28;20043;-56
2023/04/26 04:25:15;;;;;;;12.77;4.77;;;2.70;99.90;;;;;;5106378;28;20774;-56
2023/04/26 04:27:42;;;;;;;7.40;3.50;;;2.70;99.90;;;;;;5101819;28;20187;-56
2023/04/26 04:30:08;;;;;;;;;;;2.70;99.90;;;;;;5105564;28;20039;-53
2023/04/26 04:32:34;;;;;;;6.60;3.30;;;2.70;99.90;;;;;;5110462;28;19943;-56
2023/04/26 04:35:00;;;;;;;7.40;4.00;;;2.70;99.90;;;;;;5108448;28;20040;-54
2023/04/26 04:37:27;;;;;;;5.32;3.50;;;2.70;99.90;;;;;;5109989;28;20150;-56
2023/04/26 04:39:54;;;;;;;11.48;4.00;;;2.70;99.90;;;;;;5095760;28;20062;-55
2023/04/26 04:42:20;;;;;;;10.23;4.10;;;2.80;99.90;;;;;;5095953;28;20122;-53
2023/04/26 04:44:46;;;;;;;11.15;3.55;;;2.80;99.90;;;;;;5097542;28;20090;-54
2023/04/26 04:47:12;;;;;;;13.55;3.67;;;2.80;99.90;;;;;;5095755;28;20031;-53
2023/04/26 04:49:38;;;;;;;7.55;3.33;;;2.80;99.90;;;;;;5102632;28;20035;-55
2023/04/26 04:52:04;;;;;;;6.45;3.30;;;2.80;99.90;;;;;;5090729;28;20050;-54
2023/04/26 04:54:30;;;;;;;7.47;3.13;;;2.80;99.90;;;;;;5107662;28;20047;-54
2023/04/26 04:56:56;;;;;;;4.90;2.47;;;2.80;99.90;;;;;;5109314;28;20043;-53
2023/04/26 04:59:22;;;;;;;5.97;3.03;;;2.80;99.90;;;;;;5101922;28;20040;-53
2023/04/26 05:01:48;;;;;;;5.90;2.90;;;2.80;99.90;;;;;;5089286;28;20113;-53
2023/04/26 05:04:14;;;;;;;8.63;3.17;;;2.80;99.90;;;;;;5095160;28;20036;-54
2023/04/26 05:06:39;;;;;;;7.00;2.90;;;2.80;99.90;;;;;;5113405;28;20416;-55
2023/04/26 05:09:05;;;;;;;6.20;3.47;;;2.90;99.90;;;;;;5109203;28;20489;-55
2023/04/26 05:11:31;;;;;;;4.87;3.20;;;2.90;99.90;;;;;;5100066;28;20330;-53
2023/04/26 05:13:58;;;;;;;9.48;3.38;;;2.90;99.90;;;;;;5112570;28;20044;-55
2023/04/26 05:16:24;;;;;;;7.82;3.00;;;3.00;99.90;;;;;;5113251;28;20040;-54
2023/04/26 05:18:49;;;;;;;7.30;3.40;;;3.10;99.90;;;;;;5112893;28;20100;-55
2023/04/26 05:21:15;;;;;;;8.83;3.03;;;3.10;99.90;;;;;;5093074;28;20062;-54
2023/04/26 05:23:41;;;;;;;7.37;3.13;;;3.20;99.90;;;;;;5092869;28;20120;-54
2023/04/26 05:26:07;;;;;;;8.03;3.30;;;3.20;99.90;;;;;;5110173;28;20043;-56
2023/04/26 05:28:33;;;;;;;7.22;3.72;;;3.30;99.90;;;;;;5112681;28;20042;-55
2023/04/26 05:31:00;;;;;;;9.43;3.72;;;3.30;99.90;;;;;;5097282;28;20111;-53
2023/04/26 05:33:27;;;;;;;6.55;2.70;;;3.40;99.90;;;;;;5093078;28;20560;-55
2023/04/26 05:35:53;;;;;;;7.03;3.50;;;3.50;99.90;;;;;;5094063;28;20404;-55
2023/04/26 05:38:19;;;;;;;8.73;3.33;;;3.70;99.90;;;;;;5098943;28;20430;-53
2023/04/26 05:40:47;;;;;;;7.32;3.25;;;3.80;99.90;;;;;;5099689;28;20044;-54
2023/04/26 05:43:12;;;;;;;8.45;3.30;;;3.80;99.90;;;;;;5093063;28;20130;-53
2023/04/26 05:45:38;;;;;;;7.80;3.78;;;3.90;99.90;;;;;;5092725;28;20067;-56
2023/04/26 05:48:04;;;;;;;7.53;3.47;;;4.00;99.90;;;;;;5092300;28;20028;-56
2023/04/26 05:50:30;;;;;;;8.68;3.78;;;4.10;99.90;;;;;;5101766;28;20359;-55
2023/04/26 05:52:55;;;;;;;11.10;3.47;;;4.20;99.90;;;;;;5113039;28;20059;-55
2023/04/26 05:55:21;;;;;;;4.10;3.03;;;4.30;99.90;;;;;;5105448;28;20047;-55
2023/04/26 05:57:47;;;;;;;12.27;3.43;;;4.50;99.90;;;;;;5100921;28;20069;-54
2023/04/26 06:00:14;;;;;;;9.00;4.27;;;4.60;99.90;;;;;;5092597;28;20035;-56
2023/04/26 06:02:40;;;;;;;12.57;4.45;;;4.70;99.90;;;;;;5093335;28;20489;-54
2023/04/26 06:05:06;;;;;;;7.22;3.80;;;4.80;99.90;;;;;;5094513;28;20057;-53
2023/04/26 06:07:32;;;;;;;5.88;3.28;;;4.90;99.90;;;;;;5091360;28;20397;-56
2023/04/26 06:10:00;;;;;;;5.97;2.92;;;5.00;99.90;;;;;;5098861;28;20036;-58
2023/04/26 06:12:25;;;;;;;14.48;3.35;;;5.10;99.90;;;;;;5112465;28;20491;-57
2023/04/26 06:14:51;;;;;;;9.13;2.53;;;5.20;99.90;;;;;;5111567;28;20046;-55
2023/04/26 06:17:16;;;;;;;8.43;3.57;;;5.30;99.90;;;;;;5109715;28;20036;-58
2023/04/26 06:19:42;;;;;;;4.43;2.70;;;5.40;99.90;;;;;;5111249;28;20115;-56
2023/04/26 06:22:07;;;;;;;9.20;3.13;;;5.40;99.90;;;;;;5094418;28;20035;-57
2023/04/26 06:24:33;;;;;;;5.13;2.50;;;5.50;99.90;;;;;;5104590;28;20126;-56
2023/04/26 06:26:58;;;;;;;6.23;2.67;;;5.50;99.90;;;;;;5109822;28;20085;-56
2023/04/26 06:29:24;;;;;;;5.00;2.57;;;5.60;99.90;;;;;;5109764;28;20597;-55
2023/04/26 06:31:50;;;;;;;13.83;3.37;;;5.60;99.90;;;;;;5105683;28;20031;-59
2023/04/26 06:34:15;;;;;;;4.33;1.83;;;5.70;99.90;;;;;;5098920;28;20416;-57
2023/04/26 06:36:41;;;;;;;13.83;2.53;;;5.70;99.90;;;;;;5095987;28;20313;-56
2023/04/26 06:39:06;;;;;;;6.10;2.20;;;5.80;99.90;;;;;;5090357;28;20450;-56
2023/04/26 06:41:32;;;;;;;8.70;2.17;;;5.90;99.90;;;;;;5092761;28;20036;-57
2023/04/26 06:43:58;;;;;;;8.70;3.00;;;5.90;99.90;;;;;;5091405;28;20102;-57
2023/04/26 06:46:23;;;;;;;7.93;2.40;;;6.00;99.90;;;;;;5100699;28;20032;-57
2023/04/26 06:48:51;;;;;;;7.90;2.40;;;6.00;99.90;;;;;;5104522;28;20039;-56
2023/04/26 06:51:17;;;;;;;7.82;2.53;;;6.10;99.90;;;;;;5108581;28;20032;-56
2023/04/26 06:53:42;;;;;;;8.27;2.13;;;6.10;99.90;;;;;;5111622;28;20032;-57
2023/04/26 06:56:08;;;;;;;5.87;3.07;;;6.10;99.90;;;;;;5105846;28;20414;-55
2023/04/26 06:58:33;;;;;;;7.17;2.53;;;6.10;99.90;;;;;;5090972;28;20032;-57
2023/04/26 07:01:00;;;;;;;5.77;1.90;;;6.10;99.90;;;;;;5093954;28;20043;-55
2023/04/26 07:03:25;;;;;;;5.20;2.60;;;6.10;99.90;;;;;;5105185;28;20047;-54
2023/04/26 07:05:51;;;;;;;7.83;1.90;;;6.20;99.90;;;;;;5085114;28;20452;-56
2023/04/26 07:08:17;;;;;;;7.43;2.93;;;6.20;99.90;;;;;;5094247;28;20520;-54
2023/04/26 07:10:42;;;;;;;6.95;1.90;;;6.30;99.90;;;;;;5091446;28;20084;-55
2023/04/26 07:13:08;;;;;;;4.67;1.90;;;6.40;99.90;;;;;;5088757;28;20474;-55
2023/04/26 07:15:35;;;;;;;4.57;2.50;;;6.50;99.90;;;;;;5095050;28;20035;-56
2023/04/26 07:18:00;;;;;;;5.70;2.00;;;6.50;99.90;;;;;;5105155;28;20043;-56
2023/04/26 07:20:26;;;;;;;3.37;2.10;;;6.60;99.90;;;;;;5097665;28;20047;-56
2023/04/26 07:22:51;;;;;;;9.50;2.10;;;6.70;99.90;;;;;;5091232;28;20301;-57
2023/04/26 07:25:17;;;;;;;13.03;3.03;;;6.80;99.90;;;;;;5100248;28;20035;-53
2023/04/26 07:27:43;;;;;;;5.30;1.55;;;6.90;99.90;;;;;;5101607;28;20555;-54
2023/04/26 07:30:09;;;;;;;5.97;2.17;;;7.00;99.90;;;;;;5105332;28;20404;-56
2023/04/26 07:32:35;;;;;;;5.63;1.75;;;7.10;99.90;;;;;;5093179;28;20516;-55
2023/04/26 07:35:06;;;;;;;5.43;1.98;;;7.20;99.90;;;;;;5087618;28;20492;-55
2023/04/26 07:37:32;;;;;;;5.22;2.17;;;7.30;99.90;;;;;;5101627;28;20044;-56
2023/04/26 07:39:58;;;;;;;7.63;1.42;;;7.30;99.90;;;;;;5098786;28;20046;-52
2023/04/26 07:42:24;;;;;;;6.55;1.67;;;7.40;99.90;;;;;;5097935;28;20036;-57
2023/04/26 07:44:50;;;;;;;5.17;1.47;;;7.50;99.90;;;;;;5089666;28;20047;-56
2023/04/26 07:47:15;;;;;;;5.97;1.70;;;7.60;99.90;;;;;;5103907;28;20097;-53
2023/04/26 07:49:41;;;;;;;4.00;1.13;;;7.60;99.90;;;;;;5095942;28;20663;-56
2023/04/26 07:52:10;;;;;;;9.57;2.20;;;7.70;99.90;;;;;;5098250;28;20873;-56
2023/04/26 07:54:35;;;;;;;2.85;1.30;;;7.70;99.90;;;;;;5102174;28;20076;-57
2023/04/26 07:57:01;;;;;;;8.60;1.55;;;7.90;99.90;;;;;;5093912;28;20513;-57
2023/04/26 07:59:27;;;;;;;6.93;1.40;;;7.90;99.90;;;;;;5103886;28;20035;-53
2023/04/26 08:01:52;;;;;;;7.93;1.23;;;8.00;99.90;;;;;;5101815;28;20199;-55
2023/04/26 08:04:31;;;;;;;5.60;0.70;;;8.10;99.90;;;;;;5103785;28;20036;-57
2023/04/26 08:06:57;;;;;;;8.95;0.70;;;8.20;99.90;;;;;;5104596;28;20036;-54
2023/04/26 08:09:22;;;;;;;4.72;0.98;;;8.20;99.90;;;;;;5104264;28;20036;-53
2023/04/26 08:11:48;;;;;;;4.47;0.50;;;8.30;99.90;;;;;;5106248;28;20028;-54
2023/04/26 08:14:14;;;;;;;4.13;0.90;;;8.30;99.90;;;;;;5098839;28;20524;-56
2023/04/26 08:16:40;;;;;;;8.20;0.93;;;8.30;99.90;;;;;;5092278;28;20505;-54
2023/04/26 08:19:06;;;;;;;3.15;0.93;;;8.30;99.90;;;;;;5097414;28;20639;-53
2023/04/26 08:21:31;;;;;;;3.67;0.80;;;8.30;99.90;;;;;;5096194;28;20032;-54
2023/04/26 08:23:57;;;;;;;4.60;0.43;;;8.40;99.90;;;;;;5086734;28;20286;-56
2023/04/26 08:26:22;;;;;;;5.03;0.70;;;8.40;99.90;;;;;;5099805;28;20027;-56
2023/04/26 08:28:48;;;;;;;8.40;0.97;;;8.40;99.90;;;;;;5084090;28;20043;-54
2023/04/26 08:31:13;;;;;;;6.30;1.23;;;8.50;99.90;;;;;;5101019;28;20035;-56
2023/04/26 08:33:39;;;;;;;5.57;0.80;;;8.50;99.90;;;;;;5085267;28;20063;-53
2023/04/26 08:36:05;;;;;;;4.70;1.20;;;8.60;99.90;;;;;;5091665;28;20036;-55
2023/04/26 08:38:31;;;;;;;7.38;1.20;;;8.60;99.90;;;;;;5098463;28;20305;-56
2023/04/26 08:41:00;;;;;;;5.60;1.77;;;8.70;99.90;;;;;;5091958;28;20024;-56
2023/04/26 08:43:27;;;;;;;4.80;1.60;;;8.70;99.90;;;;;;5085181;28;20086;-57
2023/04/26 08:45:54;;;;;;;4.78;1.88;;;8.80;99.90;;;;;;5092808;28;20043;-55
2023/04/26 08:48:20;;;;;;;;;;;8.80;99.90;;;;;;5090386;28;20034;-56
2023/04/26 08:50:47;;;;;;;6.53;2.30;;;8.80;99.90;;;;;;5091567;28;19916;-55
2023/04/26 08:53:16;;;;;;;5.72;2.47;;;8.80;99.90;;;;;;5086691;28;20087;-56
2023/04/26 08:55:49;;;;;;;5.03;1.40;;;8.80;99.90;;;;;;5084904;28;20509;-53
2023/04/26 08:58:15;;;;;;;13.48;2.90;;;8.80;99.90;;;;;;5102791;28;20412;-57
2023/04/26 09:00:44;;;;;;;9.45;2.53;;;8.80;99.90;;;;;;5105015;28;20055;-56
2023/04/26 09:03:10;;;;;;;5.93;1.75;;;8.70;99.90;;;;;;5105547;28;20043;-56
2023/04/26 09:05:39;;;;;;;8.48;2.33;;;8.70;99.90;;;;;;5104754;28;20046;-56
2023/04/26 09:08:06;;;;;;;4.72;2.40;;;8.60;99.90;;;;;;5098495;28;20081;-55
2023/04/26 09:10:32;;;;;;;4.93;2.15;;;8.50;99.90;;;;;;5084944;28;20206;-56
2023/04/26 09:12:57;;;;;;;3.30;2.25;;;8.40;99.90;;;;;;5100264;28;20151;-55
2023/04/26 09:15:25;;;;;;;10.07;2.37;;;8.30;99.90;;;;;;5105229;28;20091;-56
2023/04/26 09:17:51;;;;;;;5.95;2.63;;;8.30;99.90;;;;;;5104305;28;20096;-54
2023/04/26 09:20:20;;;;;;;12.18;2.45;;;8.20;99.90;;;;;;5105115;28;20062;-55
2023/04/26 09:22:47;;;;;;;6.47;2.17;;;8.20;99.90;;;;;;5105286;28;20449;-56
2023/04/26 09:25:28;;;;;;;6.47;1.98;;;8.10;99.90;;;;;;5105061;28;20111;-57
2023/04/26 09:27:54;;;;;;;4.07;1.60;;;8.10;99.90;;;;;;5104130;28;20072;-55
2023/04/26 09:30:21;;;;;;;5.45;1.73;;;8.00;99.90;;;;;;5103445;28;20035;-57
2023/04/26 09:32:51;;;;;;;;;;;8.00;99.90;;;;;;5105808;28;20039;-57
2023/04/26 09:35:21;;;;;;;5.68;1.90;;;8.20;99.90;;;;;;5105423;28;19927;-57
2023/04/26 09:38:08;;;;;;;5.00;1.55;;;8.10;99.90;;;;;;5104448;28;20044;-55
2023/04/26 09:40:40;;;;;;;8.43;1.92;;;8.20;99.90;;;;;;5104805;28;20035;-56
2023/04/26 09:43:13;;;;;;;4.35;1.25;;;8.20;99.90;;;;;;5093906;28;20047;-56
2023/04/26 09:45:50;;;;;;;7.20;1.52;;;8.20;99.90;;;;;;5100856;28;20046;-56
2023/04/26 09:48:25;;;;;;;3.85;1.88;;;8.30;99.90;;;;;;5093408;28;20039;-57
2023/04/26 09:50:58;;;;;;;6.90;2.30;;;8.40;99.90;;;;;;5088601;28;20070;-56
2023/04/26 09:53:26;;;;;;;9.93;2.53;;;8.40;99.90;;;;;;5094416;28;20448;-54
2023/04/26 09:55:53;;;;;;;4.45;2.35;;;8.50;99.90;;;;;;5100472;28;20501;-57
2023/04/26 09:58:19;;;;;;;6.65;2.40;;;8.50;99.90;;;;;;5096124;28;20051;-57
2023/04/26 10:00:48;;;;;;;11.00;2.77;;;8.50;99.90;;;;;;5095207;28;20039;-54
2023/04/26 10:03:16;;;;;;;8.65;2.65;;;8.50;99.90;;;;;;5100978;28;20122;-56
2023/04/26 10:05:42;;;;;;;8.40;2.08;;;8.60;99.90;;;;;;5071924;28;20108;-57
2023/04/26 10:08:08;;;;;;;5.88;1.95;;;8.60;99.90;;;;;;5091569;28;20051;-57
2023/04/26 10:10:35;;;;;;;9.27;2.20;;;8.60;99.90;;;;;;5095212;28;20036;-55
2023/04/26 10:13:00;;;;;;;;;;;8.70;99.90;;;;;;5098823;28;20083;-56
2023/04/26 10:15:26;;;;;;;8.07;2.00;;;8.80;99.90;;;;;;5092443;28;19963;-56
2023/04/26 10:17:52;;;;;;;10.00;2.95;;;8.90;99.90;;;;;;5101216;28;20047;-54
2023/04/26 10:20:20;;;;;;;7.53;1.50;;;8.90;99.90;;;;;;5094951;28;20295;-55
2023/04/26 10:22:52;;;;;;;4.28;1.42;;;9.00;99.90;;;;;;5090585;28;20548;-53
2023/04/26 10:25:18;;;;;;;5.50;0.88;;;9.10;99.90;;;;;;5099008;28;20435;-56
2023/04/26 10:27:46;;;;;;;2.35;0.85;;;9.20;99.90;;;;;;5090484;28;20791;-55
2023/04/26 10:30:16;;;;;;;4.72;0.82;;;9.30;99.90;;;;;;5099189;28;20097;-57
2023/04/26 10:33:05;;;;;;;7.07;1.25;;;9.30;99.90;;;;;;5098888;28;20040;-56
2023/04/26 10:35:31;;;;;;;5.68;1.50;;;9.30;99.90;;;;;;5092582;28;20259;-54
2023/04/26 10:38:05;;;;;;;5.57;1.83;;;9.20;99.90;;;;;;5096637;28;20440;-56
2023/04/26 10:40:39;;;;;;;3.25;0.90;;;9.20;99.90;;;;;;5091554;28;20052;-55
2023/04/26 10:43:08;;;;;;;2.17;1.40;;;9.20;99.90;;;;;;5096657;28;20039;-56
2023/04/26 10:45:34;;;;;;;5.63;0.95;;;9.20;99.90;;;;;;5091758;28;20040;-57
2023/04/26 10:48:18;;;;;;;2.97;1.17;;;9.20;99.90;;;;;;5096138;28;20031;-56
2023/04/26 10:51:10;;;;;;;4.95;1.17;;;9.20;99.90;;;;;;5095163;28;20103;-57
2023/04/26 10:53:45;;;;;;;5.10;1.50;;;9.20;99.90;;;;;;5094485;28;20131;-56
2023/04/26 10:56:26;;;;;;;2.70;1.17;;;9.20;99.90;;;;;;5090570;28;20061;-57
2023/04/26 10:59:18;;;;;;;5.90;0.88;;;9.30;99.90;;;;;;5088529;28;20043;-54
2023/04/26 11:01:44;;;;;;;8.13;2.13;;;9.50;99.90;;;;;;5088906;28;20052;-56
2023/04/26 11:04:11;;;;;;;8.57;1.67;;;9.80;99.90;;;;;;5089369;28;20036;-55
2023/04/26 11:06:58;;;;;;;9.50;1.40;;;9.90;99.90;;;;;;5092265;28;20042;-57
2023/04/26 11:09:38;;;;;;;2.63;1.27;;;10.00;99.90;;;;;;5092783;28;20028;-57
2023/04/26 11:12:05;;;;;;;4.55;1.25;;;10.00;99.90;;;;;;5093435;28;20056;-58
2023/04/26 11:14:31;;;;;;;3.80;1.00;;;9.90;99.90;;;;;;5087707;28;20045;-58
2023/04/26 11:16:57;;;;;;;4.25;0.75;;;9.90;99.90;;;;;;5094029;28;20532;-56
2023/04/26 11:19:23;;;;;;;7.93;1.03;;;9.90;99.90;;;;;;5090805;28;20075;-55
2023/04/26 11:21:49;;;;;;;7.90;1.02;;;9.80;99.90;;;;;;5088852;28;20122;-57
2023/04/26 11:24:14;;;;;;;;;;;9.70;99.90;;;;;;5088695;28;20550;-57
2023/04/26 11:26:40;;;;;;;3.70;1.65;;;9.70;99.90;;;;;;5092734;28;19920;-56
2023/04/26 11:29:12;;;;;;;6.80;1.20;;;9.60;99.90;;;;;;5088877;28;20040;-55
2023/04/26 11:31:37;;;;;;;1.85;0.82;;;9.50;99.90;;;;;;5090686;28;20043;-56
2023/04/26 11:34:04;;;;;;;4.07;1.47;;;9.40;99.90;;;;;;5091893;28;20118;-56
2023/04/26 11:36:29;;;;;;;4.75;1.40;;;9.30;99.90;;;;;;5089756;28;20320;-55
2023/04/26 11:38:56;;;;;;;4.03;1.00;;;9.20;99.90;;;;;;5091391;28;20070;-54
2023/04/26 11:41:21;;;;;;;;;;;9.20;99.90;;;;;;5090095;28;20047;-57
2023/04/26 11:43:47;;;;;;;5.25;1.33;;;9.10;99.90;;;;;;5092569;28;19916;-56
2023/04/26 11:46:13;;;;;;;4.73;1.27;;;9.10;99.90;;;;;;5092647;28;20040;-55
2023/04/26 11:48:39;;;;;;;1.97;0.60;;;9.10;99.90;;;;;;5091336;28;20497;-56
2023/04/26 11:51:07;;;;;;;2.03;0.82;;;9.00;99.90;;;;;;5095510;28;20781;-56
2023/04/26 11:53:42;;;;;;;4.80;1.42;;;9.00;99.90;;;;;;5090361;28;20035;-57
2023/04/26 11:56:16;;;;;;;9.00;1.45;;;9.00;99.90;;;;;;5092103;28;20562;-55
2023/04/26 11:58:49;;;;;;;3.25;0.63;;;9.00;99.90;;;;;;5090939;28;20041;-57
2023/04/26 12:01:25;;;;;;;3.78;0.93;;;8.90;99.90;;;;;;5092318;28;20136;-56
2023/04/26 12:03:52;;;;;;;4.80;1.33;;;8.80;99.90;;;;;;5094326;28;20143;-56
2023/04/26 12:06:19;;;;;;;3.67;0.73;;;8.80;99.90;;;;;;5092552;28;20405;-56
2023/04/26 12:08:50;;;;;;;;;;;8.80;99.90;;;;;;5074908;28;21519;-57
2023/04/26 12:11:16;;;;;;;9.10;1.58;;;8.80;99.90;;;;;;5093127;28;19919;-56
2023/04/26 12:13:42;;;;;;;5.70;1.60;;;8.90;99.90;;;;;;5090889;28;20085;-56
2023/04/26 12:16:08;;;;;;;2.38;1.20;;;8.90;99.90;;;;;;5092891;28;20092;-56
2023/04/26 12:18:34;;;;;;;3.25;1.10;;;8.90;99.90;;;;;;5088003;28;20080;-54
2023/04/26 12:21:00;;;;;;;4.03;1.25;;;8.90;99.90;;;;;;5090763;28;20062;-54
2023/04/26 12:23:34;;;;;;;5.03;1.85;;;8.90;99.90;;;;;;5088676;28;20048;-54
2023/04/26 12:26:02;;;;;;;7.50;2.50;;;9.10;99.90;;;;;;5093166;28;20036;-57
2023/04/26 12:28:28;;;;;;;3.58;2.42;;;9.10;99.90;;;;;;5092377;28;20388;-56
2023/04/26 12:30:53;;;;;;;13.83;2.87;;;9.10;99.90;;;;;;5094511;28;20025;-55
2023/04/26 12:33:21;;;;;;;6.13;1.90;;;9.10;99.90;;;;;;5093067;28;20052;-56
2023/04/26 12:35:50;;;;;;;4.22;1.75;;;9.00;99.90;;;;;;5092192;28;20556;-54
2023/04/26 12:38:17;;;;;;;4.28;1.80;;;9.00;99.90;;;;;;5094893;28;20135;-55
2023/04/26 12:40:43;;;;;;;7.10;2.17;;;9.00;99.90;;;;;;5089168;28;20742;-56
2023/04/26 12:43:09;;;;;;;5.50;1.85;;;9.00;99.90;;;;;;5093536;28;20504;-56
2023/04/26 12:45:35;;;;;;;2.80;1.27;;;9.00;99.90;;;;;;5092187;28;20088;-57
2023/04/26 12:48:01;;;;;;;4.90;2.15;;;9.10;99.90;;;;;;5090398;28;20047;-55
2023/04/26 12:50:27;;;;;;;4.22;3.15;;;9.10;99.90;;;;;;5089182;28;20090;-56
2023/04/26 12:52:53;;;;;;;5.65;1.90;;;9.20;99.90;;;;;;5092973;28;20468;-55
2023/04/26 12:55:19;;;;;;;5.07;1.25;;;9.10;99.90;;;;;;5090003;28;20032;-53
2023/04/26 12:57:45;;;;;;;3.45;1.25;;;9.20;99.90;;;;;;5090282;28;20111;-57